La Grange, Arkansas
Current Conditions -  °F | °C
As of 2:35 PM on Saturday 20 Dec 2014 (Local Time) from KUTA Reporting Station
Broken Clouds Broken Clouds  
Wind Chill: 50°   Ceiling: 6000
Heat Index: 50°   Visibility: 10mi
Dew Point: 36°   Wind: 5mph
Humidity: 58%   Direction: 10°N
Pressure: 30.22"   Gusts: NA
Location:  34.66°N, 90.73°W
Report Text: KUTA 202035Z AUTO 01004KT 10SM BKN060 10/02 A3022 RMK AO2
Loading
Personal Weather Stations






























Interactive Weather Map New forecast layout! Learn more

10-Day Weather Forecast

Advertisements
Track Severe Weather on mobile